WATT

El Tari Airport

Kupang-Timor Island, Indonesia
TAF WATT 211700Z 2118/2218 12005KT 8000 BKN018 BECMG 2200/2203 10010KT FEW018 BECMG 2207/2209 12015KT BECMG 2212/2214 10005KT BKN017
Issued Valid From Valid To
Jul-21 @ 17:00 UTC
(6 hours ago)
Jul-21 @ 18:00 UTC
(5 hours ago)
Jul-22 @ 18:00 UTC
(in 19 hours)
Jul-21 @ 18:00 to Jul-22 @ 00:00
TAF WATT 211700Z 2118/2218 12005KT 8000 BKN018
Wind Visibility Clouds
120° at 5 knots 7,998 meters
  • Broken at 1,800' AGL
Becoming Jul-22 @ 00:00 to Jul-22 @ 07:00
BECMG 2200/2203 10010KT FEW018
Wind Visibility Clouds
100° at 10 knots 7,998 meters
  • Few at 1,800' AGL
Becoming Jul-22 @ 07:00 to Jul-22 @ 12:00
BECMG 2207/2209 12015KT
Wind Visibility Clouds
120° at 15 knots 7,998 meters
  • Few at 1,800' AGL
Becoming Jul-22 @ 12:00 to Jul-22 @ 18:00
BECMG 2212/2214 10005KT BKN017
Wind Visibility Clouds
100° at 5 knots 7,998 meters
  • Broken at 1,700' AGL
TAF WATT 211700Z 2118/2218 12005KT 8000 BKN018 BECMG 2200/2203 10010KT FEW018 BECMG 2207/2209 12015KT BECMG 2212/2214 10005KT BKN017
Issued Jul-21 @ 17:00 UTC
(6 hours ago)
Valid From Jul-21 @ 18:00 UTC
(5 hours ago)
Valid To Jul-22 @ 18:00 UTC
(in 19 hours)
Jul-21 @ 18:00 - Jul-22 @ 00:00
Wind Visibility
120° at 5 knots 7,998 meters
Clouds
  • Broken at 1,800' AGL
Becoming Jul-22 @ 00:00 - Jul-22 @ 07:00
Wind Visibility
100° at 10 knots 7,998 meters
Clouds
  • Few at 1,800' AGL
Becoming Jul-22 @ 07:00 - Jul-22 @ 12:00
Wind Visibility
120° at 15 knots 7,998 meters
Clouds
  • Few at 1,800' AGL
Becoming Jul-22 @ 12:00 - Jul-22 @ 18:00
Wind Visibility
100° at 5 knots 7,998 meters
Clouds
  • Broken at 1,700' AGL